Time;durP1;ratioP1;P1;durP2;ratioP2;P2;SDS_P1;SDS_P2;PMS_P1;PMS_P2;Temp;Humidity;BMP_temperature;BMP_pressure;BME280_temperature;BME280_humidity;BME280_pressure;Samples;Min_cycle;Max_cycle;Signal;HPM_P1;HPM_P2
2022/02/23 00:01:15;;;;;;;3.50;2.20;;;;;;;17.89;48.30;97674.41;4880507;29;20226;-84
2022/02/23 00:03:42;;;;;;;2.80;2.10;;;;;;;18.08;48.46;97708.38;4865777;29;20210;-82
2022/02/23 00:06:09;;;;;;;3.50;2.20;;;;;;;17.92;48.28;97705.91;4880815;29;20260;-83
2022/02/23 00:08:38;;;;;;;3.67;2.23;;;;;;;17.92;48.44;97672.00;4866615;29;20198;-83
2022/02/23 00:11:05;;;;;;;4.47;2.17;;;;;;;14.13;48.36;97018.19;4881082;29;20234;-82
2022/02/23 00:13:34;;;;;;;3.50;2.23;;;;;;;12.42;47.92;96795.63;4865353;29;20210;-86
2022/02/23 00:16:01;;;;;;;4.03;2.27;;;;;;;11.83;48.38;96638.00;4897420;29;20297;-85
2022/02/23 00:18:30;;;;;;;3.50;2.30;;;;;;;13.74;48.38;96958.06;4880581;29;20203;-84
2022/02/23 00:20:56;;;;;;;3.00;2.17;;;;;;;14.55;48.01;97107.94;4861695;29;20235;-84
2022/02/23 00:23:23;;;;;;;4.20;2.50;;;;;;;13.26;48.04;96866.44;4875736;29;20203;-84
2022/02/23 00:25:50;;;;;;;2.63;2.23;;;;;;;13.28;48.47;96878.31;4880399;29;20241;-85
2022/02/23 00:28:16;;;;;;;2.77;2.20;;;;;;;15.47;48.10;97239.91;4880632;29;20206;-85
2022/02/23 00:30:46;;;;;;;4.03;2.30;;;;;;;15.57;48.17;97256.41;4880317;29;20511;-84
2022/02/23 00:33:12;;;;;;;3.10;2.20;;;;;;;15.95;48.36;97411.13;4865326;29;20640;-84
2022/02/23 00:35:39;;;;;;;2.70;1.90;;;;;;;15.25;48.58;97261.53;4864950;29;20202;-83
2022/02/23 00:38:08;;;;;;;3.60;2.20;;;;;;;15.54;48.08;97252.06;4865450;29;20305;-84
2022/02/23 00:40:35;;;;;;;3.00;2.00;;;;;;;15.98;48.11;97347.91;4897053;29;20214;-84
2022/02/23 00:43:01;;;;;;;3.27;2.20;;;;;;;14.12;47.94;97078.75;4861799;29;20207;-82
2022/02/23 00:45:31;;;;;;;3.13;2.37;;;;;;;16.74;48.13;97497.03;4857839;29;20234;-84
2022/02/23 00:47:57;;;;;;;3.10;2.20;;;;;;;15.14;47.71;97185.09;4880732;29;20203;-84
2022/02/23 00:50:27;;;;;;;4.50;2.50;;;;;;;13.94;48.18;97007.06;4864908;29;20226;-84
2022/02/23 00:52:54;;;;;;;3.07;2.33;;;;;;;17.39;48.29;97579.69;4850161;29;20216;-84
2022/02/23 00:55:20;;;;;;;3.73;2.47;;;;;;;13.93;48.23;97006.22;4864174;29;20202;-84
2022/02/23 00:57:47;;;;;;;2.73;2.10;;;;;;;16.80;48.02;97493.13;4880278;29;20266;-84
2022/02/23 01:00:14;;;;;;;2.43;2.07;;;;;;;14.62;48.02;97169.00;4864694;29;20708;-84
2022/02/23 01:02:44;;;;;;;2.00;1.80;;;;;;;17.92;48.20;97669.44;4880244;29;20279;-84
2022/02/23 01:05:11;;;;;;;2.77;2.00;;;;;;;16.97;48.37;97549.75;4875850;29;20669;-84
2022/02/23 01:07:38;;;;;;;4.43;2.10;;;;;;;18.10;48.17;97710.97;4854041;29;20202;-84
2022/02/23 01:10:08;;;;;;;2.93;2.00;;;;;;;16.96;48.14;97530.25;4879864;29;20250;-86
2022/02/23 01:12:36;;;;;;;3.17;2.00;;;;;;;14.28;47.77;97082.16;4846553;29;20203;-85
2022/02/23 01:15:04;;;;;;;3.40;2.10;;;;;;;14.37;48.41;97145.81;4831569;29;20278;-84
2022/02/23 01:17:31;;;;;;;2.80;2.17;;;;;;;13.44;48.04;96970.81;4861382;29;20684;-84
2022/02/23 01:19:58;;;;;;;4.17;2.37;;;;;;;16.09;48.39;97393.28;4879595;29;21591;-85
2022/02/23 01:22:25;;;;;;;2.60;2.00;;;;;;;17.54;48.06;97609.25;4879652;29;20712;-84
2022/02/23 01:24:52;;;;;;;3.00;2.30;;;;;;;15.96;48.35;97344.47;4863949;29;20712;-84
2022/02/23 01:27:22;;;;;;;3.73;2.50;;;;;;;17.15;48.25;97611.56;4863806;29;20222;-84
2022/02/23 01:29:48;;;;;;;2.87;2.00;;;;;;;18.07;48.19;97701.53;4863466;29;20756;-84
2022/02/23 01:32:18;;;;;;;3.57;2.33;;;;;;;15.67;48.18;97286.44;4913584;23;20667;-80
2022/02/23 01:34:45;;;;;;;3.20;1.93;;;;;;;15.85;48.41;97317.72;4877520;29;20736;-88
2022/02/23 01:37:13;;;;;;;2.30;2.10;;;;;;;16.92;48.51;97502.97;4863079;29;20209;-88
2022/02/23 01:39:40;;;;;;;2.63;2.07;;;;;;;16.28;48.81;97477.03;4894818;29;20206;-85
2022/02/23 01:42:07;;;;;;;4.00;2.27;;;;;;;17.76;48.48;97664.44;4864591;29;20345;-88
2022/02/23 01:44:38;;;;;;;2.47;1.90;;;;;;;12.24;48.38;96751.84;4876013;29;20282;-88
2022/02/23 01:47:05;;;;;;;2.33;1.90;;;;;;;14.63;48.59;97120.16;4842632;29;20238;-88
2022/02/23 01:49:32;;;;;;;3.73;2.37;;;;;;;14.76;48.54;97146.03;4875890;29;20684;-87
2022/02/23 01:51:59;;;;;;;2.67;1.93;;;;;;;15.24;48.41;97230.28;4860156;29;20227;-89
2022/02/23 01:54:26;;;;;;;2.60;1.80;;;;;;;8.15;48.12;96198.81;4877092;29;20587;-87
2022/02/23 01:56:53;;;;;;;2.40;1.90;;;;;;;17.69;48.33;97718.34;4872808;29;20234;-87
2022/02/23 01:59:22;;;;;;;2.63;2.10;;;;;;;18.55;48.42;97872.53;4860034;29;20290;-85
2022/02/23 02:01:52;;;;;;;2.47;1.90;;;;;;;17.33;48.16;97605.69;4873290;29;20704;-88
2022/02/23 02:04:21;;;;;;;3.07;2.10;;;;;;;13.00;48.34;96849.97;4862447;29;20224;-88
2022/02/23 02:06:51;;;;;;;2.20;2.00;;;;;;;15.74;48.67;97329.88;4843632;29;20241;-88
2022/02/23 02:09:19;;;;;;;2.47;1.90;;;;;;;15.99;48.50;97375.88;4860585;29;20206;-88
2022/02/23 02:11:48;;;;;;;3.27;1.93;;;;;;;13.00;48.04;96876.84;4860382;29;20635;-87
2022/02/23 02:14:15;;;;;;;2.40;2.00;;;;;;;16.38;48.13;97484.28;4875512;29;20213;-88
2022/02/23 02:16:41;;;;;;;2.50;2.07;;;;;;;17.39;48.66;97645.72;4876522;29;20626;-88
2022/02/23 02:19:08;;;;;;;3.03;1.90;;;;;;;16.34;48.74;97472.25;4875833;29;20290;-81
2022/02/23 02:22:07;;;;;;;2.30;2.10;;;;;;;18.64;48.43;97863.63;4860648;29;20254;-82
2022/02/23 02:24:35;;;;;;;2.93;1.90;;;;;;;13.86;48.09;97036.97;4863767;29;20203;-81
2022/02/23 02:27:09;;;;;;;2.03;1.80;;;;;;;15.76;48.22;97367.97;4860704;29;20276;-81
2022/02/23 02:29:39;;;;;;;2.33;2.00;;;;;;;14.23;48.04;97130.66;4876434;29;20198;-80
2022/02/23 02:32:08;;;;;;;3.03;2.10;;;;;;;18.68;48.35;97890.13;4860396;29;20234;-82
2022/02/23 02:34:35;;;;;;;2.23;1.80;;;;;;;17.43;48.18;97676.47;4877028;29;20211;-81
2022/02/23 02:37:05;;;;;;;2.13;1.93;;;;;;;14.36;48.09;97201.34;4876044;29;20210;-80
2022/02/23 02:39:32;;;;;;;2.20;2.00;;;;;;;14.44;48.36;97223.69;4878954;29;20203;-81
2022/02/23 02:41:59;;;;;;;2.27;1.80;;;;;;;18.69;48.35;97942.78;4860573;29;20223;-80
2022/02/23 02:44:30;;;;;;;1.93;1.70;;;;;;;18.39;48.11;97909.13;4878560;29;20306;-80
2022/02/23 02:46:57;;;;;;;2.27;1.90;;;;;;;18.53;48.00;97948.81;4863535;29;20582;-80
2022/02/23 02:49:24;;;;;;;2.33;1.70;;;;;;;18.70;48.12;97968.31;4879463;29;20203;-80
2022/02/23 02:51:50;;;;;;;2.93;2.10;;;;;;;17.62;47.90;97780.72;4879032;29;20227;-81
2022/02/23 02:54:20;;;;;;;2.30;1.87;;;;;;;18.70;48.19;97969.97;4880579;29;20211;-84
2022/02/23 02:56:47;;;;;;;2.33;2.00;;;;;;;13.08;47.87;97089.97;4878712;29;20478;-81
2022/02/23 02:59:14;;;;;;;2.23;1.90;;;;;;;11.03;47.55;96670.44;4862950;29;20215;-82
2022/02/23 03:01:40;;;;;;;3.53;1.93;;;;;;;18.35;48.24;97909.72;4863218;29;20716;-78
2022/02/23 03:04:07;;;;;;;3.70;1.77;;;;;;;12.83;47.95;96949.91;4863311;29;20239;-81
2022/02/23 03:06:34;;;;;;;2.97;1.90;;;;;;;16.90;48.25;97655.19;4863675;29;20223;-81
2022/02/23 03:09:02;;;;;;;2.83;1.83;;;;;;;16.43;48.12;97578.34;4879246;29;20207;-78
2022/02/23 03:11:29;;;;;;;1.80;1.50;;;;;;;12.08;48.08;97001.06;4879643;29;20227;-79
2022/02/23 03:13:58;;;;;;;2.60;1.73;;;;;;;17.41;48.19;97777.09;4878577;29;20629;-82
2022/02/23 03:16:25;;;;;;;2.80;2.00;;;;;;;10.94;48.32;96745.31;4863454;29;20237;-80
2022/02/23 03:18:52;;;;;;;1.77;1.53;;;;;;;15.57;48.14;97507.16;4878772;29;20246;-80
2022/02/23 03:21:18;;;;;;;1.70;1.50;;;;;;;9.78;48.30;96454.81;4863444;29;20229;-81
2022/02/23 03:23:45;;;;;;;2.37;1.80;;;;;;;12.32;48.15;96936.13;4878932;29;20206;-80
2022/02/23 03:26:12;;;;;;;2.13;1.60;;;;;;;14.39;48.06;97379.28;4878577;29;20234;-79
2022/02/23 03:28:39;;;;;;;1.90;1.60;;;;;;;12.70;48.17;96961.75;4863205;29;20206;-80
2022/02/23 03:31:07;;;;;;;2.37;1.50;;;;;;;18.62;48.38;98010.31;4862752;29;20635;-80
2022/02/23 03:33:34;;;;;;;1.80;1.47;;;;;;;17.25;48.42;97781.34;4878433;29;20206;-80
2022/02/23 03:36:01;;;;;;;2.10;1.90;;;;;;;13.00;48.31;97045.78;4862992;29;20203;-79
2022/02/23 03:38:28;;;;;;;2.70;1.90;;;;;;;10.02;48.19;96543.16;4863156;29;20314;-82
2022/02/23 03:40:57;;;;;;;1.90;1.70;;;;;;;11.39;48.24;96774.72;4847367;29;20232;-80
2022/02/23 03:43:26;;;;;;;1.80;1.70;;;;;;;8.33;48.44;96256.63;4863841;29;20210;-80
2022/02/23 03:45:53;;;;;;;1.87;1.70;;;;;;;17.30;48.35;97840.88;4877949;29;20266;-79
2022/02/23 03:48:20;;;;;;;1.50;1.40;;;;;;;16.55;48.19;97736.25;4879140;29;20234;-80
2022/02/23 03:50:46;;;;;;;2.20;1.50;;;;;;;17.65;48.52;97886.75;4877293;29;20223;-82
2022/02/23 03:53:13;;;;;;;1.70;1.60;;;;;;;18.57;48.61;98052.53;4878208;29;20221;-80
2022/02/23 03:55:43;;;;;;;2.40;1.90;;;;;;;15.91;48.38;97602.72;4878379;29;20263;-79
2022/02/23 03:58:10;;;;;;;1.60;1.50;;;;;;;14.01;48.63;97275.22;4877065;29;20219;-87
2022/02/23 04:00:36;;;;;;;1.67;1.53;;;;;;;17.81;48.36;97940.09;4861695;29;20573;-87
2022/02/23 04:03:08;;;;;;;1.87;1.57;;;;;;;16.24;48.56;97667.84;4862763;29;20298;-87
2022/02/23 04:05:34;;;;;;;1.83;1.67;;;;;;;16.02;48.61;97646.38;4876553;29;20203;-87
2022/02/23 04:08:04;;;;;;;1.90;1.67;;;;;;;18.56;48.35;98095.72;4862499;29;20227;-88
2022/02/23 04:10:30;;;;;;;1.73;1.63;;;;;;;16.68;48.45;97776.72;4877862;29;20272;-88
2022/02/23 04:12:57;;;;;;;2.30;1.80;;;;;;;18.55;48.56;98109.22;4861893;29;20209;-85
2022/02/23 04:15:26;;;;;;;1.83;1.50;;;;;;;12.65;48.17;97101.78;4878816;29;20298;-88
2022/02/23 04:17:53;;;;;;;1.57;1.47;;;;;;;18.56;48.35;98127.13;4847233;29;20203;-86
2022/02/23 04:20:20;;;;;;;1.93;1.60;;;;;;;14.11;49.07;97375.13;4877106;29;20207;-88
2022/02/23 04:22:49;;;;;;;1.57;1.47;;;;;;;10.84;48.43;96944.97;4878548;29;20565;-88
2022/02/23 04:25:18;;;;;;;1.70;1.50;;;;;;;9.37;48.33;96662.13;4877764;29;20658;-85
2022/02/23 04:27:47;;;;;;;1.97;1.63;;;;;;;12.61;48.07;97113.34;4858839;29;20230;-87
2022/02/23 04:30:14;;;;;;;1.70;1.57;;;;;;;17.32;48.26;97939.22;4854302;29;20206;-80
2022/02/23 04:32:41;;;;;;;1.83;1.60;;;;;;;16.16;48.40;97739.22;4876954;29;20227;-83
2022/02/23 04:35:16;;;;;;;1.97;1.70;;;;;;;9.33;48.32;96665.22;4861348;29;20215;-81
2022/02/23 04:37:43;;;;;;;2.60;1.80;;;;;;;8.76;48.32;96538.81;4854300;29;20206;-80
2022/02/23 04:40:10;;;;;;;1.57;1.47;;;;;;;18.62;48.37;98211.44;4867109;29;20210;-82
2022/02/23 04:42:37;;;;;;;1.40;1.30;;;;;;;16.15;48.29;97781.47;4867387;29;20269;-81
2022/02/23 04:45:04;;;;;;;1.77;1.60;;;;;;;14.71;48.26;97597.66;4870322;29;20692;-82
2022/02/23 04:47:39;;;;;;;1.47;1.37;;;;;;;14.14;48.46;97489.88;4868293;29;20226;-80
2022/02/23 04:50:06;;;;;;;2.67;1.50;;;;;;;14.60;48.22;97490.84;4840463;29;20204;-82
2022/02/23 04:52:40;;;;;;;2.17;1.63;;;;;;;16.47;47.98;97889.75;4870495;29;20593;-80
2022/02/23 04:55:10;;;;;;;3.60;1.50;;;;;;;16.40;48.23;97839.41;4870622;29;20212;-81
2022/02/23 04:57:38;;;;;;;1.90;1.60;;;;;;;9.36;47.98;96630.31;4885358;29;20286;-80
2022/02/23 05:00:06;;;;;;;1.73;1.63;;;;;;;17.80;48.18;98089.19;4876974;29;20259;-78
2022/02/23 05:02:36;;;;;;;1.63;1.53;;;;;;;16.34;48.00;97813.72;4859436;29;20226;-81
2022/02/23 05:05:09;;;;;;;1.63;1.53;;;;;;;18.03;48.17;98109.09;4858978;29;20750;-81
2022/02/23 05:07:35;;;;;;;1.50;1.40;;;;;;;18.34;48.35;98177.69;4859386;29;20768;-81
2022/02/23 05:10:03;;;;;;;1.77;1.57;;;;;;;18.09;48.18;98122.13;4864362;29;20230;-82
2022/02/23 05:12:31;;;;;;;1.83;1.50;;;;;;;18.73;47.85;98243.44;4871310;29;20239;-80
2022/02/23 05:15:03;;;;;;;1.60;1.50;;;;;;;18.74;48.04;98251.94;4864361;29;20306;-81
2022/02/23 05:17:29;;;;;;;1.57;1.47;;;;;;;17.64;48.06;98073.94;4868247;29;20572;-82
2022/02/23 05:19:56;;;;;;;1.87;1.60;;;;;;;18.74;48.06;98247.72;4872383;29;20234;-80
2022/02/23 05:22:23;;;;;;;1.77;1.67;;;;;;;18.75;48.16;98252.03;4866898;29;20267;-80
2022/02/23 05:24:49;;;;;;;1.77;1.60;;;;;;;18.39;48.24;98194.13;4866810;29;20248;-80
2022/02/23 05:27:16;;;;;;;2.40;1.60;;;;;;;16.78;47.94;97936.28;4870015;29;20299;-84
2022/02/23 05:29:43;;;;;;;1.63;1.50;;;;;;;18.76;48.02;98276.69;4858421;29;20221;-81
2022/02/23 05:32:10;;;;;;;1.90;1.30;;;;;;;17.09;48.16;97990.47;4868716;29;20239;-78
2022/02/23 05:34:36;;;;;;;1.73;1.50;;;;;;;18.76;48.07;98286.88;4877644;29;20207;-81
2022/02/23 05:37:05;;;;;;;1.80;1.60;;;;;;;14.13;47.81;97490.69;4875883;29;20669;-79
2022/02/23 05:39:32;;;;;;;2.10;1.40;;;;;;;18.19;48.21;98210.84;4874668;29;20259;-79
2022/02/23 05:42:02;;;;;;;2.27;1.40;;;;;;;18.77;48.04;98298.78;4875276;29;20258;-80
2022/02/23 05:44:29;;;;;;;1.77;1.57;;;;;;;18.24;47.91;98213.66;4890767;29;20293;-79
2022/02/23 05:47:03;;;;;;;1.70;1.60;;;;;;;18.43;48.04;98262.19;4858949;29;20247;-77
2022/02/23 05:49:44;;;;;;;1.93;1.73;;;;;;;18.78;48.33;98322.59;4871499;29;20226;-80
2022/02/23 05:52:14;;;;;;;2.10;1.70;;;;;;;18.78;48.13;98331.13;4875428;29;20242;-80
2022/02/23 05:54:41;;;;;;;2.07;1.53;;;;;;;17.40;47.94;98092.03;4891096;29;20270;-80
2022/02/23 05:57:12;;;;;;;1.50;1.40;;;;;;;18.78;48.00;98369.31;4877243;29;20293;-82
2022/02/23 05:59:39;;;;;;;1.83;1.50;;;;;;;18.77;48.05;98342.09;4876088;29;20313;-77
2022/02/23 06:02:06;;;;;;;1.93;1.50;;;;;;;15.64;48.15;97849.53;4876011;29;20326;-78
2022/02/23 06:04:36;;;;;;;1.70;1.60;;;;;;;18.45;47.98;98292.81;4860568;29;20206;-82
2022/02/23 06:07:03;;;;;;;1.70;1.60;;;;;;;18.79;48.23;98362.53;4876234;29;20223;-81
2022/02/23 06:09:31;;;;;;;1.40;1.30;;;;;;;18.78;48.09;98351.50;4877416;29;20214;-77
2022/02/23 06:11:58;;;;;;;1.63;1.47;;;;;;;18.51;47.96;98306.75;4875715;29;20234;-77
2022/02/23 06:14:24;;;;;;;1.73;1.60;;;;;;;18.58;48.11;98319.00;4863275;29;20278;-77
2022/02/23 06:16:51;;;;;;;1.63;1.50;;;;;;;18.17;48.03;98242.97;4880369;29;20262;-81
2022/02/23 06:19:18;;;;;;;1.77;1.47;;;;;;;18.78;47.91;98353.16;4864280;29;20210;-78
2022/02/23 06:21:44;;;;;;;1.90;1.53;;;;;;;18.79;48.20;98353.25;4879732;29;20800;-78
2022/02/23 06:24:11;;;;;;;1.57;1.47;;;;;;;17.53;47.92;98140.25;4881325;29;20230;-76
2022/02/23 06:26:37;;;;;;;1.70;1.60;;;;;;;18.47;48.14;98309.06;4881579;29;20231;-77
2022/02/23 06:29:04;;;;;;;2.07;1.60;;;;;;;17.75;47.84;98188.91;4864777;29;20307;-79
2022/02/23 06:31:30;;;;;;;2.63;1.60;;;;;;;17.93;48.04;98226.38;4863642;29;20325;-79
2022/02/23 06:33:57;;;;;;;1.70;1.60;;;;;;;17.23;47.96;98116.53;4863871;29;20302;-79
2022/02/23 06:36:24;;;;;;;1.77;1.47;;;;;;;18.80;48.21;98387.22;4879374;29;20221;-78
2022/02/23 06:38:51;;;;;;;2.73;1.63;;;;;;;18.80;46.99;98392.31;4879722;29;20665;-82
2022/02/23 06:41:19;;;;;;;3.63;2.00;;;;;;;18.45;46.30;98364.06;4849095;29;20234;-82
2022/02/23 06:43:46;;;;;;;3.47;2.10;;;;;;;18.76;45.80;98401.47;4848959;29;20274;-81
2022/02/23 06:46:13;;;;;;;3.67;2.13;;;;;;;17.86;45.24;98246.31;4864274;29;20211;-83
2022/02/23 06:48:45;;;;;;;3.73;1.90;;;;;;;18.45;44.67;98357.34;4850325;29;20291;-81
2022/02/23 06:51:18;;;;;;;6.13;2.43;;;;;;;18.65;43.91;98402.53;4847968;29;20657;-79
2022/02/23 06:53:48;;;;;;;4.63;2.40;;;;;;;17.34;44.10;98180.63;4864379;29;20207;-79
2022/02/23 06:56:15;;;;;;;4.00;2.33;;;;;;;16.04;44.00;97952.38;4863395;29;20300;-79
2022/02/23 06:58:47;;;;;;;5.13;2.17;;;;;;;17.12;43.69;98150.63;4863273;29;20250;-82
2022/02/23 07:01:16;;;;;;;4.67;2.40;;;;;;;16.74;43.95;98101.88;4878272;29;20261;-81
2022/02/23 07:03:44;;;;;;;2.97;2.10;;;;;;;17.73;43.51;98261.66;4863310;29;20297;-77
2022/02/23 07:06:11;;;;;;;6.40;2.60;;;;;;;18.44;43.62;98391.19;4878199;29;20560;-78
2022/02/23 07:08:39;;;;;;;4.90;2.30;;;;;;;18.76;43.99;98446.41;4862589;29;20683;-78
2022/02/23 07:11:05;;;;;;;7.00;2.53;;;;;;;18.12;44.07;98335.09;4862797;29;20318;-79
2022/02/23 07:13:32;;;;;;;4.73;2.43;;;;;;;17.84;44.21;98297.06;4862653;29;20795;-77
2022/02/23 07:15:59;;;;;;;4.20;2.40;;;;;;;18.76;44.62;98470.22;4878075;29;20895;-78
2022/02/23 07:18:25;;;;;;;5.33;2.17;;;;;;;18.76;44.98;98475.31;4879052;29;20230;-78
2022/02/23 07:20:52;;;;;;;3.40;2.03;;;;;;;18.76;45.14;98475.31;4862167;29;20223;-78
2022/02/23 07:23:18;;;;;;;2.77;2.00;;;;;;;18.77;45.16;98477.06;4877249;29;20245;-79
2022/02/23 07:25:45;;;;;;;3.20;1.93;;;;;;;18.03;45.43;98362.56;4877032;29;20234;-79
2022/02/23 07:28:11;;;;;;;4.40;1.90;;;;;;;18.43;45.69;98427.63;4862671;29;20234;-81
2022/02/23 07:30:58;;;;;;;4.20;1.90;;;;;;;18.04;45.66;98364.31;4902450;23;20241;-84
2022/02/23 07:33:25;;;;;;;2.37;2.00;;;;;;;18.22;45.64;98406.03;4848517;29;20206;-84
2022/02/23 07:35:52;;;;;;;6.13;2.30;;;;;;;18.58;45.37;98465.75;4849240;29;20748;-83
2022/02/23 07:38:19;;;;;;;2.97;2.10;;;;;;;18.47;44.93;98459.22;4866275;29;20198;-84
2022/02/23 07:40:46;;;;;;;3.83;1.90;;;;;;;18.40;45.28;98436.75;4865291;29;20229;-85
2022/02/23 07:43:33;;;;;;;2.93;2.00;;;;;;;18.07;45.37;98395.00;4871278;29;20293;-83
2022/02/23 07:46:01;;;;;;;3.00;1.80;;;;;;;18.31;45.56;98426.91;4850334;29;20289;-84
2022/02/23 07:48:28;;;;;;;2.20;1.70;;;;;;;18.17;45.77;98403.25;4850688;29;20257;-83
2022/02/23 07:50:58;;;;;;;3.33;1.97;;;;;;;18.40;45.71;98436.75;4865388;29;20301;-81
2022/02/23 07:53:26;;;;;;;3.20;1.97;;;;;;;18.13;45.71;98392.81;4881658;29;20206;-82
2022/02/23 07:55:52;;;;;;;5.00;2.10;;;;;;;18.48;45.88;98454.22;4865628;29;20642;-82
2022/02/23 07:58:19;;;;;;;3.17;1.77;;;;;;;18.15;45.84;98401.41;4865172;29;20207;-84
2022/02/23 08:00:45;;;;;;;4.33;2.50;;;;;;;18.51;45.33;98467.13;4877987;29;20232;-83
2022/02/23 08:03:12;;;;;;;5.37;3.23;;;;;;;18.30;44.88;98429.38;4866578;29;20191;-85
2022/02/23 08:05:39;;;;;;;6.37;3.33;;;;;;;18.11;44.02;98396.91;4851008;29;20665;-84
2022/02/23 08:08:06;;;;;;;7.60;3.43;;;;;;;18.18;43.46;98415.16;4866392;29;20599;-84
2022/02/23 08:10:32;;;;;;;6.60;3.80;;;;;;;18.72;44.10;98514.13;4866396;29;20298;-84
2022/02/23 08:12:59;;;;;;;9.53;4.70;;;;;;;18.74;43.41;98537.16;4862029;29;20709;-85
2022/02/23 08:20:56;;;;;;;6.60;4.00;;;;;;;18.04;43.93;98426.25;4864256;29;20218;-82
2022/02/23 08:23:22;;;;;;;6.77;3.70;;;;;;;18.50;44.44;98503.53;4846662;29;20294;-85
2022/02/23 08:25:50;;;;;;;6.40;3.30;;;;;;;17.97;44.75;98419.03;4846620;29;20207;-85
2022/02/23 08:28:16;;;;;;;9.20;4.00;;;;;;;17.53;44.47;98344.41;4831674;29;20261;-85
2022/02/23 08:30:43;;;;;;;4.83;3.03;;;;;;;17.15;44.77;98285.41;4846323;29;20203;-85
2022/02/23 08:33:10;;;;;;;6.73;3.73;;;;;;;18.06;44.80;98442.44;4861954;29;20305;-85
2022/02/23 08:35:43;;;;;;;5.67;3.30;;;;;;;18.26;44.93;98470.72;4862251;29;20199;-85
2022/02/23 08:38:11;;;;;;;4.87;3.10;;;;;;;18.14;45.11;98450.50;4831380;29;20656;-85
2022/02/23 08:40:42;;;;;;;6.33;3.27;;;;;;;18.35;45.40;98492.44;4831497;29;20203;-86
2022/02/23 08:43:09;;;;;;;8.70;3.77;;;;;;;17.31;45.61;98310.00;4846479;29;20267;-86
2022/02/23 08:45:36;;;;;;;4.67;2.80;;;;;;;17.90;45.59;98406.75;4861610;29;20781;-85
2022/02/23 08:48:07;;;;;;;5.50;2.90;;;;;;;17.93;45.71;98424.75;4861829;29;20229;-86
2022/02/23 08:50:34;;;;;;;7.60;3.13;;;;;;;17.51;45.53;98350.19;4846165;29;20242;-85
2022/02/23 08:53:00;;;;;;;4.73;2.70;;;;;;;18.05;45.83;98452.53;4831267;29;20258;-85
2022/02/23 08:55:27;;;;;;;4.50;3.00;;;;;;;18.53;45.99;98523.22;4846161;29;20203;-85
2022/02/23 08:57:54;;;;;;;5.17;3.17;;;;;;;18.28;45.95;98487.81;4845904;29;20287;-85
2022/02/23 09:00:21;;;;;;;5.07;3.00;;;;;;;17.82;45.67;98417.25;4830991;29;20302;-86
2022/02/23 09:02:47;;;;;;;6.20;3.27;;;;;;;17.59;46.13;98371.88;4861002;29;20668;-85
2022/02/23 09:05:14;;;;;;;5.10;3.00;;;;;;;18.07;45.84;98462.03;4859948;29;20210;-85
2022/02/23 09:07:41;;;;;;;4.97;2.90;;;;;;;17.45;46.15;98358.34;4848871;29;20202;-83
2022/02/23 09:10:07;;;;;;;4.23;2.53;;;;;;;18.04;46.30;98453.31;4879760;29;20229;-86
2022/02/23 09:12:34;;;;;;;4.60;2.70;;;;;;;18.74;46.38;98573.66;4849596;29;20313;-85
2022/02/23 09:15:01;;;;;;;4.80;3.00;;;;;;;18.11;46.32;98483.41;4879682;29;20262;-85
2022/02/23 09:17:28;;;;;;;3.80;2.53;;;;;;;18.13;46.48;98486.94;4864195;29;20269;-86
2022/02/23 09:19:55;;;;;;;5.23;2.77;;;;;;;18.08;46.86;98475.59;4864117;29;20234;-85
2022/02/23 09:22:22;;;;;;;4.20;2.60;;;;;;;18.05;46.86;98462.72;4849071;29;20317;-85
2022/02/23 09:24:48;;;;;;;3.27;2.40;;;;;;;18.34;46.07;98516.16;4863984;29;20295;-86
2022/02/23 09:27:15;;;;;;;4.27;2.90;;;;;;;18.09;46.61;98475.69;4864082;29;20202;-86
2022/02/23 09:29:42;;;;;;;3.67;2.60;;;;;;;18.23;46.55;98505.34;4848670;29;20226;-85
2022/02/23 09:32:09;;;;;;;3.90;2.80;;;;;;;17.38;46.68;98356.19;4878799;29;20234;-86
2022/02/23 09:34:36;;;;;;;3.07;2.13;;;;;;;17.72;47.08;98426.03;4848819;29;20639;-85
2022/02/23 09:37:03;;;;;;;3.60;2.30;;;;;;;18.29;46.72;98527.72;4848553;29;20210;-85
2022/02/23 09:39:30;;;;;;;3.67;2.50;;;;;;;17.83;46.71;98447.84;4863980;29;20280;-85
2022/02/23 09:41:57;;;;;;;3.20;2.47;;;;;;;18.40;46.75;98546.19;4848966;29;20253;-84
2022/02/23 09:44:25;;;;;;;3.27;2.63;;;;;;;17.91;46.89;98464.44;4880313;29;20203;-85
2022/02/23 09:46:52;;;;;;;5.27;2.70;;;;;;;18.18;46.29;98510.97;4849447;29;20213;-84
2022/02/23 09:49:18;;;;;;;5.30;2.73;;;;;;;17.94;46.09;98469.72;4848933;29;20234;-84
2022/02/23 09:51:46;;;;;;;5.70;2.93;;;;;;;18.24;46.18;98529.13;4848869;29;20278;-84
2022/02/23 09:54:13;;;;;;;6.17;2.60;;;;;;;18.16;46.16;98510.00;4855997;29;20214;-84
2022/02/23 09:56:40;;;;;;;2.97;2.30;;;;;;;18.09;46.33;98503.66;4847999;29;20610;-85
2022/02/23 09:59:07;;;;;;;13.63;2.87;;;;;;;17.81;46.43;98467.25;4849474;29;20237;-84
2022/02/23 10:01:33;;;;;;;4.83;2.70;;;;;;;18.12;46.83;98519.09;4849339;29;20234;-86
2022/02/23 10:04:00;;;;;;;8.47;3.10;;;;;;;16.76;46.25;98277.97;4849330;29;20668;-85
2022/02/23 10:06:31;;;;;;;5.07;2.60;;;;;;;18.44;45.76;98566.81;4879510;29;20215;-86
2022/02/23 10:09:04;;;;;;;6.03;2.60;;;;;;;18.33;45.83;98554.22;4880031;29;20245;-85
2022/02/23 10:11:30;;;;;;;4.57;2.43;;;;;;;18.16;45.81;98512.53;4849623;29;20236;-86
2022/02/23 10:13:57;;;;;;;6.53;2.50;;;;;;;17.66;45.49;98427.34;4878528;29;20289;-86
2022/02/23 10:16:34;;;;;;;8.33;2.90;;;;;;;17.75;44.01;98440.59;4856688;29;20253;-85
2022/02/23 10:19:11;;;;;;;7.23;2.80;;;;;;;17.87;44.18;98464.19;4831429;29;20278;-85
2022/02/23 10:21:59;;;;;;;5.23;2.80;;;;;;;18.06;43.94;98500.94;4846263;29;20218;-86
2022/02/23 10:24:33;;;;;;;6.13;2.60;;;;;;;17.78;43.59;98453.47;4861516;29;20248;-84
2022/02/23 10:27:07;;;;;;;7.27;3.23;;;;;;;18.59;43.26;98582.09;4831501;29;20277;-86
2022/02/23 10:29:48;;;;;;;11.23;2.97;;;;;;;18.11;42.18;98502.09;4860480;29;20219;-86
2022/02/23 10:32:16;;;;;;;5.90;2.60;;;;;;;18.24;43.11;98531.69;4845850;29;20230;-86
2022/02/23 10:34:47;;;;;;;4.73;2.53;;;;;;;18.10;42.87;98519.81;4845071;29;20628;-83
2022/02/23 10:37:16;;;;;;;7.87;2.67;;;;;;;17.65;42.52;98429.00;4830327;29;20210;-86
2022/02/23 10:39:50;;;;;;;10.70;3.10;;;;;;;18.14;42.58;98519.19;4829889;29;20211;-86
2022/02/23 10:42:26;;;;;;;5.67;2.47;;;;;;;17.26;42.34;98373.25;4845431;29;20234;-85
2022/02/23 10:44:54;;;;;;;6.00;2.70;;;;;;;17.84;42.31;98461.47;4846073;29;20297;-85
2022/02/23 10:47:22;;;;;;;5.90;2.40;;;;;;;18.58;41.87;98593.06;4839829;29;20270;-86
2022/02/23 10:50:06;;;;;;;6.73;3.10;;;;;;;17.96;42.22;98477.44;4875942;29;20251;-85
2022/02/23 10:52:35;;;;;;;6.73;2.90;;;;;;;18.08;41.98;98498.50;4861664;29;20645;-84
2022/02/23 10:55:17;;;;;;;9.43;3.13;;;;;;;18.55;42.03;98581.03;4875388;29;20223;-85
2022/02/23 10:57:45;;;;;;;6.87;2.80;;;;;;;17.91;42.10;98474.63;4876483;29;20658;-85
2022/02/23 11:00:19;;;;;;;7.47;2.80;;;;;;;18.20;43.06;98519.56;4860350;29;20203;-86
2022/02/23 11:02:47;;;;;;;7.00;2.80;;;;;;;17.76;43.33;98442.31;4878518;29;20501;-85
2022/02/23 11:05:14;;;;;;;5.53;2.40;;;;;;;18.01;43.66;98479.47;4865884;29;20293;-85
2022/02/23 11:07:44;;;;;;;8.97;2.93;;;;;;;17.66;44.29;98428.22;4851199;29;20207;-86
2022/02/23 11:10:14;;;;;;;7.07;2.77;;;;;;;18.23;44.42;98516.34;4866178;29;20502;-86
2022/02/23 11:12:45;;;;;;;4.17;2.30;;;;;;;18.17;44.12;98499.91;4852070;29;20520;-84
2022/02/23 11:15:19;;;;;;;5.07;2.17;;;;;;;17.78;44.91;98431.47;4851046;29;20249;-86
2022/02/23 11:17:47;;;;;;;7.97;2.60;;;;;;;17.43;44.67;98367.53;4851451;29;20261;-85
2022/02/23 11:20:21;;;;;;;5.80;2.43;;;;;;;17.93;44.58;98447.63;4866338;29;20261;-86
2022/02/23 11:22:54;;;;;;;3.37;1.83;;;;;;;17.66;44.69;98394.28;4882147;29;20241;-85
2022/02/23 11:25:20;;;;;;;6.40;2.73;;;;;;;18.36;44.86;98517.13;4866920;29;20290;-85
2022/02/23 11:27:52;;;;;;;4.90;2.20;;;;;;;18.02;45.26;98465.97;4851093;29;20297;-86
2022/02/23 11:30:19;;;;;;;6.10;2.40;;;;;;;18.33;44.22;98509.31;4851130;29;20266;-85
2022/02/23 11:32:46;;;;;;;6.67;2.73;;;;;;;18.52;43.11;98537.59;4851169;29;20262;-85
2022/02/23 11:35:40;;;;;;;6.13;2.63;;;;;;;17.99;43.23;98449.63;4867895;29;20714;-85
2022/02/23 11:38:07;;;;;;;7.37;2.90;;;;;;;17.20;43.60;98311.06;4863242;29;20207;-85
2022/02/23 11:40:51;;;;;;;8.27;2.57;;;;;;;17.95;43.95;98446.03;4833444;29;20285;-84
2022/02/23 11:43:24;;;;;;;4.93;2.47;;;;;;;18.58;44.42;98549.78;4833765;29;20376;-86
2022/02/23 11:46:13;;;;;;;5.70;2.50;;;;;;;18.44;44.79;98517.59;4880213;29;20267;-85